Tiempo atmosférico en la estación meteorológica de La Aldea de San Nicolás, Las Palmas (318 m.)



Fecha
DESCASC
Temp. máxima en grados centígrados (hora)
DESCASC
Temp. mínima en grados centígrados (hora)
DESCASC
Temp. media en grados centígrados
DESCASC
Racha de viento máxima en m/sg (hora)
DESCASC
Velocidad máxima media en intervalos de 10 minutos(hora)
DESCASC
Precipitaciones diarias en mm
DESCASC
Precipitaciones de 00:00 a 06:00 en mm
DESCASC
Precipitaciones de 06:00 a 12:00 en mm
DESCASC
Precipitaciones de 12:00 a 18:00 en mm
DESCASC
Precipitaciones de 18:00 a 24:00 en mm
DESCASC
17-09-2020 28 (00:10) 23.6 (20:40) 25.8 18.33 (00:40) 11.94 (00:30) 0 0 0 0 0
16-09-2020 35.4 (13:10) 24.2 (03:10) 29.8 16.94 (03:10) 10.28 (03:10) 0 0 0 0 0
15-09-2020 32.7 (18:40) 22.4 (05:10) 27.6 19.72 (20:00) 13.33 (20:10) 0 0 0 0 0
14-09-2020 28.6 (15:20) 18.8 (00:00) 23.7 16.94 (17:10) 10 (14:20) 0 0 0 0 0
13-09-2020 27.6 (15:50) 22.5 (00:00) 25.1 9.44 (21:20) 5.28 (13:50) 0 0 0 0 0
12-09-2020 27.9 (16:30) 21.5 (00:00) 24.7 17.22 (01:40) 9.72 (02:00) 0 0 0 0 0
11-09-2020 26.4 (15:50) 22.8 (00:00) 24.6 20.56 (08:40) 12.5 (16:40) 0 0 0 0 0
10-09-2020 27.5 (14:50) 22.9 (00:00) 25.2 21.67 (12:40) 13.89 (17:40) 0 0 0 0 0
09-09-2020 30.8 (16:50) 23.9 (00:00) 27.3 21.94 (15:20) 15 (13:50) 0 0 0 0 0
08-09-2020 30.4 (09:40) 24.2 (00:00) 27.3 20.28 (14:20) 12.78 (18:00) 0 0 0 0 0
07-09-2020 31.9 (15:20) 21.8 (07:40) 26.8 15 (16:00) 10.28 (12:00) 0 0 0 0 0
06-09-2020 27.9 (14:50) 20.1 (00:00) 24 14.17 (16:50) 7.78 (17:00) 0 0 0 0 0
05-09-2020 28.6 (15:30) 22.5 (00:00) 25.6 15.28 (19:50) 8.33 (20:00) 0 0 0 0 0
04-09-2020 29 (16:10) 18.3 (00:00) 23.6 15 (14:00) 8.89 (12:40) 0 0 0 0 0
03-09-2020 29.6 (14:00) 18.2 (00:00) 23.9 14.17 (19:20) 8.33 (18:50) 0 0 0 0 0
02-09-2020 28.5 (15:10) 18.7 (00:00) 23.6 15 (13:30) 8.33 (14:40) 0 0 0 0 0
01-09-2020 28.5 (15:00) 23 (00:00) 25.8 13.89 (00:50) 7.78 (17:10) 0 0 0 0 0
31-08-2020 29.4 (15:40) 21.7 (00:00) 25.6 18.89 (16:30) 10.28 (11:30) 0 0 0 0 0
30-08-2020 30.3 (14:50) 22.3 (00:00) 26.3 24.17 (16:10) 10 (16:10) 0 0 0 0 0
29-08-2020 30.9 (14:50) 22.7 (00:00) 26.8 24.44 (14:00) 13.89 (02:50) 0 0 0 0 0
28-08-2020 28.1 (12:50) 23.1 (00:00) 25.6 23.89 (17:20) 16.11 (17:20) 0 0 0 0 0
27-08-2020 36.5 (13:20) 24.7 (00:00) 30.6 18.06 (19:30) 11.39 (16:20) 0 0 0 0 0
26-08-2020 35.5 (13:20) 22.4 (00:00) 28.9 14.72 (00:50) 7.78 (00:20) 0 0 0 0 0
25-08-2020 28 (14:30) 22.5 (00:00) 25.3 22.5 (02:50) 11.94 (02:50) 0 0 0 0 0
24-08-2020 27.7 (14:00) 22.7 (00:00) 25.2 25.83 (15:00) 15.28 (16:40) 0 0 0 0 0
23-08-2020 26.6 (16:20) 23 (00:00) 24.8 26.11 (11:30) 16.11 (16:40) 0 0 0 0 0
22-08-2020 31.9 (14:00) 20.4 (00:00) 26.1 22.78 (23:00) 13.06 (22:10) 0 0 0 0 0
21-08-2020 30.5 (15:10) 18 (00:00) 24.3 13.89 (16:10) 8.61 (22:00) 0 0 0 0 0

Gráficas

Temp. máximas Temp. mínimas Temp. medias Precipitaciones Rachas de viento máximas Velocidades máximas media en intervalos de 10 minutos

Datos horarios

Fecha y hora oficial Temperatura (ºC) Velocidad del viento (km/h) Dirección del viento Racha (km/h) Dirección de racha Precipitación (mm) Presión (hPa) Tendencia (hPa) Humedad (%)
2020-09-19 23:00:00 21.7 0 Calma 6 Sur 0 -- -- 80
2020-09-19 22:00:00 21.8 0 Calma 14 Sur 0 -- -- 80
2020-09-19 21:00:00 22.5 12 Sur 17 Sur 0 -- -- 74
2020-09-19 20:00:00 23.7 10 Sur 17 Sur 0 -- -- 69
2020-09-19 19:00:00 26.5 17 Sur 28 Sur 0 -- -- 59
2020-09-19 18:00:00 29.2 15 Sur 31 Sur 0 -- -- 55
2020-09-19 17:00:00 29.5 20 Sur 31 Sur 0 -- -- 56
2020-09-19 16:00:00 29.1 23 Sur 32 Sur 0 -- -- 56
2020-09-19 15:00:00 29.1 20 Sur 31 Sur 0 -- -- 56
2020-09-19 14:00:00 29.2 22 Sur 31 Sur 0 -- -- 55
2020-09-19 13:00:00 28.2 21 Sur 29 Sur 0 -- -- 59
2020-09-19 12:00:00 27.7 15 Sur 21 Sur 0 -- -- 61
2020-09-19 11:00:00 25.7 12 Sur 16 Sur 0 -- -- 67
2020-09-19 10:00:00 20.7 4 Norte 5 Nordeste 0 -- -- 84
2020-09-19 09:00:00 19.4 0 Calma 7 Norte 0 -- -- 86
2020-09-19 08:00:00 19.2 0 Calma 5 Norte 0 -- -- 86
2020-09-19 07:00:00 19.1 0 Calma 7 Norte 0 -- -- 85
2020-09-19 06:00:00 19.3 3 Nordeste 6 Norte 0 -- -- 81
2020-09-19 05:00:00 19.6 0 Calma 5 Norte 0 -- -- 80
2020-09-19 04:00:00 20 0 Calma 8 Norte 0 -- -- 77
2020-09-19 03:00:00 20.3 9 Norte 11 Norte 0 -- -- 74
2020-09-19 02:00:00 20.4 3 Norte 5 Norte 0 -- -- 76
2020-09-19 01:00:00 20.8 0 Calma 6 Norte 0 -- -- 72
2020-09-19 00:00:00 21.6 0 Calma 14 Norte 0 -- -- 76
2020-09-18 23:00:00 21.7 9 Norte 15 Nordeste 0 -- -- 68
2020-09-18 22:00:00 22.1 4 Sur 17 Sudoeste 0 -- -- 80
2020-09-18 21:00:00 22.5 5 Norte 24 Nordeste 0 -- -- 72
2020-09-18 20:00:00 23 14 Nordeste 24 Norte 0 -- -- 70
2020-09-18 19:00:00 25.9 10 Este 27 Sur 0 -- -- 62
2020-09-18 18:00:00 29.2 20 Sur 27 Sur 0 -- -- 55
2020-09-18 17:00:00 29.1 23 Sur 31 Sur 0 -- -- 54
2020-09-18 16:00:00 29.8 20 Sur 31 Sur 0 -- -- 52
2020-09-18 15:00:00 29.9 24 Sur 31 Sur 0 -- -- 52
2020-09-18 14:00:00 29.5 22 Sur 30 Sur 0 -- -- 54
2020-09-18 13:00:00 29 20 Sur 27 Sur 0 -- -- 57
2020-09-18 12:00:00 27.1 22 Sur 27 Sur 0 -- -- 63
2020-09-18 11:00:00 24.7 7 Este 13 Nordeste 0 -- -- 57
2020-09-18 10:00:00 22.7 8 Nordeste 18 Nordeste 0 -- -- 62
2020-09-18 09:00:00 21.3 13 Nordeste 23 Nordeste 0 -- -- 64
2020-09-18 08:00:00 21.4 13 Nordeste 26 Nordeste 0 -- -- 63
2020-09-18 07:00:00 21.2 15 Nordeste 24 Este 0 -- -- 63
2020-09-18 06:00:00 21.3 13 Nordeste 28 Nordeste 0 -- -- 65
2020-09-18 05:00:00 21.6 16 Nordeste 31 Nordeste 0 -- -- 63
2020-09-18 04:00:00 21.8 18 Nordeste 30 Nordeste 0 -- -- 64
2020-09-18 03:00:00 22.2 17 Nordeste 35 Nordeste 0 -- -- 63
2020-09-18 02:00:00 22.4 19 Nordeste 33 Nordeste 0 -- -- 66
2020-09-18 01:00:00 23.4 20 Nordeste 41 Nordeste 0 -- -- 60
2020-09-18 00:00:00 23.3 25 Nordeste 34 Nordeste 0 -- -- 61
2020-09-17 23:00:00 23.5 5 Sudoeste 19 Sudoeste 0 -- -- 77
2020-09-17 22:00:00 24.7 5 Norte 20 Norte 0 -- -- 62
2020-09-17 21:00:00 25.3 14 Norte 35 Norte 0 -- -- 61
2020-09-17 20:00:00 26.1 21 Norte 28 Norte 0 -- -- 62
2020-09-17 19:00:00 28.3 12 Norte 24 Sur 0 -- -- 55
2020-09-17 18:00:00 31.9 16 Sur 22 Sur 0 -- -- 36
2020-09-17 17:00:00 32.7 15 Sur 26 Sur 0 -- -- 41
2020-09-17 16:00:00 33.2 17 Sur 24 Sur 0 -- -- 44
2020-09-17 15:00:00 32.3 22 Sur 31 Sur 0 -- -- 46
2020-09-17 14:00:00 33.4 16 Sur 32 Sur 0 -- -- 35
2020-09-17 13:00:00 33.7 10 Sudoeste 24 Sur 0 -- -- 33
2020-09-17 12:00:00 29.6 11 Sudoeste 25 Sur 0 -- -- 54
2020-09-17 11:00:00 26.6 11 Norte 37 Nordeste 0 -- -- 54
2020-09-17 10:00:00 25.4 8 Nordeste 26 Norte 0 -- -- 62
2020-09-17 09:00:00 24.2 15 Nordeste 26 Nordeste 0 -- -- 64
2020-09-17 08:00:00 24 9 Norte 26 Nordeste 0 -- -- 63
2020-09-17 07:00:00 23.6 2 Noroeste 10 Sudeste 0 -- -- 66
2020-09-17 06:00:00 23.9 5 Sur 18 Sur 0 -- -- 65
2020-09-17 05:00:00 24.4 9 Sur 35 Sur 0 -- -- 62
2020-09-17 04:00:00 24.9 0 Calma 32 Sur 0 -- -- 58
2020-09-17 03:00:00 27.3 6 Sur 36 Norte 0 -- -- 45
2020-09-17 02:00:00 31.1 22 Norte 41 Norte 0 -- -- 33
2020-09-17 01:00:00 28.9 13 Norte 32 Nordeste 0 -- -- 37
2020-09-17 00:00:00 26.3 4 Sur 26 Sur 0 -- -- 50
2020-09-16 23:00:00 27.6 14 Sur 24 Sur 0 -- -- 43
2020-09-16 22:00:00 27.9 8 Sudeste 25 Sudoeste 0 -- -- 41
2020-09-16 21:00:00 27.6 9 Sur 17 Sur 0 -- -- 44
2020-09-16 20:00:00 28.2 10 Sur 17 Sur 0 -- -- 41
2020-09-16 19:00:00 29.8 13 Sur 23 Sur 0 -- -- 39
2020-09-16 18:00:00 30.3 15 Sur 23 Sur 0 -- -- 39
2020-09-16 17:00:00 32.9 18 Sur 26 Sur 0 -- -- 32
2020-09-16 16:00:00 34.9 18 Sur 25 Sur 0 -- -- 31
2020-09-16 15:00:00 32.9 11 Sur 35 Sur 0 -- -- 36
2020-09-16 14:00:00 34.2 26 Sur 34 Sur 0 -- -- 38
2020-09-16 13:00:00 30.6 13 Sudoeste 48 Sur 0 -- -- 43
2020-09-16 12:00:00 27.8 12 Norte 36 Sur 0 -- -- 43
2020-09-16 11:00:00 29.7 11 Sur 35 Norte 0 -- -- 38
2020-09-16 10:00:00 30.7 12 Norte 60 Norte 0 -- -- 33
2020-09-16 09:00:00 30 29 Norte 58 Norte 0 -- -- 33
2020-09-16 08:00:00 30 24 Norte 45 Norte 0 -- -- 32
2020-09-16 07:00:00 30.2 30 Norte 60 Norte 0 -- -- 31
2020-09-16 06:00:00 30.4 34 Norte 59 Noroeste 0 -- -- 30
2020-09-16 05:00:00 30.5 34 Norte 65 Norte 0 -- -- 30
2020-09-16 04:00:00 30.7 37 Norte 58 Norte 0 -- -- 29
2020-09-16 03:00:00 30.8 28 Norte 59 Norte 0 -- -- 29
2020-09-16 02:00:00 31.4 39 Norte 60 Norte 0 -- -- 27
2020-09-16 01:00:00 31.7 38 Norte 70 Norte 0 -- -- 26
2020-09-16 00:00:00 31.6 38 Norte 59 Norte 0 -- -- 26
2020-09-15 23:00:00 30.9 40 Norte 60 Noroeste 0 -- -- 26
2020-09-15 22:00:00 30.2 41 Norte 65 Noroeste 0 -- -- 28
2020-09-15 21:00:00 29.2 45 Norte 65 Noroeste 0 -- -- 35
2020-09-15 20:00:00 23.6 6 Sur 34 Sur 0 -- -- 73
2020-09-15 19:00:00 26.7 9 Sudoeste 37 Sur 0 -- -- 61
2020-09-15 18:00:00 31.2 14 Noroeste 45 Norte 0 -- -- 39
2020-09-15 17:00:00 31.4 17 Norte 32 Noroeste 0 -- -- 38
2020-09-15 16:00:00 30.2 15 Sur 27 Sudoeste 0 -- -- 54
2020-09-15 15:00:00 28.7 10 Sudoeste 38 Sur 0 -- -- 56
2020-09-15 14:00:00 29 28 Sur 60 Sur 0 -- -- 53
2020-09-15 13:00:00 31.2 21 Norte 49 Nordeste 0 -- -- 26
2020-09-15 12:00:00 26.3 14 Sur 51 Sur 0 -- -- 64
2020-09-15 11:00:00 32.7 17 Norte 40 Norte 0 -- -- 42
2020-09-15 10:00:00 26.9 16 Sudoeste 33 Nordeste 0 -- -- 51
2020-09-15 09:00:00 27.9 13 Nordeste 27 Este 0 -- -- 31
2020-09-15 08:00:00 21.7 3 Sudeste 10 Sur 0 -- -- 73
2020-09-15 07:00:00 21.9 0 Calma 18 Sur 0 -- -- 73
2020-09-15 06:00:00 23.4 2 Este 14 Norte 0 -- -- 59
2020-09-15 05:00:00 22.6 3 Nordeste 14 Nordeste 0 -- -- 65
2020-09-15 04:00:00 22.6 4 Nordeste 8 Norte 0 -- -- 66
2020-09-15 03:00:00 23 0 Calma 19 Sudeste 0 -- -- 65
2020-09-15 02:00:00 25.7 18 Sur 42 Sur 0 -- -- 57
2020-09-15 01:00:00 27.9 16 Nordeste 49 Este 0 -- -- 40
2020-09-15 00:00:00 25.8 2 Sudoeste 17 Nordeste 0 -- -- 56
2020-09-14 23:00:00 24.7 3 Este 25 Sur 0 -- -- 64
2020-09-14 22:00:00 25.8 0 Calma 15 Este 0 -- -- 56
2020-09-14 21:00:00 24.5 6 Norte 28 Sur 0 -- -- 64
2020-09-14 20:00:00 25.5 0 Calma 23 Sur 0 -- -- 57
2020-09-14 19:00:00 27.1 17 Sur 25 Sur 0 -- -- 52
2020-09-14 18:00:00 31.1 17 Sur 24 Sur 0 -- -- 48
2020-09-14 17:00:00 30.8 18 Sur 31 Sur 0 -- -- 50
2020-09-14 16:00:00 31 19 Sur 29 Sur 0 -- -- 52
2020-09-14 15:00:00 29.5 24 Sur 32 Sur 0 -- -- 54
2020-09-14 14:00:00 29.4 19 Sur 31 Sur 0 -- -- 58
2020-09-14 13:00:00 28.9 19 Sur 25 Sur 0 -- -- 60
2020-09-14 12:00:00 27.5 18 Sur 25 Sur 0 -- -- 66
2020-09-14 11:00:00 26 11 Sur 18 Sur 0 -- -- 69
2020-09-14 10:00:00 22.3 6 Sur 9 Sur 0 -- -- 85
2020-09-14 09:00:00 19.8 0 Calma 6 Norte 0 -- -- 89
2020-09-14 08:00:00 18.8 0 Calma 6 Nordeste 0 -- -- 92
2020-09-14 07:00:00 18.8 6 Norte 8 Norte 0 -- -- 94
2020-09-14 06:00:00 19.2 0 Calma 5 Nordeste 0 -- -- 94
2020-09-14 05:00:00 19.8 4 Norte 6 Norte 0 -- -- 94
2020-09-14 04:00:00 19.5 0 Calma 4 Sudeste 0 -- -- 93
2020-09-14 03:00:00 19.8 0 Calma 4 Sudeste 0 -- -- 92
2020-09-14 02:00:00 20.1 0 Calma 6 Sudoeste 0 -- -- 91
2020-09-14 01:00:00 20.5 0 Calma 10 Sur 0 -- -- 90
2020-09-14 00:00:00 20.8 6 Sur 9 Sur 0 -- -- 88
2020-09-13 23:00:00 21.4 3 Sudoeste 11 Sudoeste 0 -- -- 86
2020-09-13 22:00:00 22.3 8 Sur 12 Sur 0 -- -- 83
2020-09-13 21:00:00 23.3 9 Sur 19 Sur 0 -- -- 76
2020-09-13 20:00:00 24.6 12 Sur 21 Sur 0 -- -- 71
2020-09-13 19:00:00 25.5 9 Sur 15 Sur 0 -- -- 68
2020-09-13 18:00:00 26.7 10 Sur 26 Sur 0 -- -- 64
2020-09-13 17:00:00 27.8 18 Sur 25 Sur 0 -- -- 60
2020-09-13 16:00:00 27.9 7 Sur 22 Sur 0 -- -- 60
2020-09-13 15:00:00 26.9 20 Sur 38 Sur 0 -- -- 65
2020-09-13 14:00:00 28.4 10 Sudoeste 29 Sur 0 -- -- 59
2020-09-13 13:00:00 27.2 10 Sur 17 Sur 0 -- -- 64
2020-09-13 12:00:00 25 5 Sudoeste 26 Sur 0 -- -- 71
2020-09-13 11:00:00 24.1 16 Sur 25 Sur 0 -- -- 72
2020-09-13 10:00:00 22.8 0 Calma 17 Sur 0 -- -- 78
2020-09-13 09:00:00 21.4 16 Sur 22 Sur 0 -- -- 85
2020-09-13 08:00:00 20.8 8 Sudeste 28 Sur 0 -- -- 86
2020-09-13 07:00:00 20.8 5 Sudeste 15 Sur 0 -- -- 86
2020-09-13 06:00:00 20.9 7 Sur 11 Sur 0 -- -- 83
2020-09-13 05:00:00 20.7 2 Nordeste 9 Sur 0 -- -- 83
2020-09-13 04:00:00 21 0 Calma 13 Sur 0 -- -- 83
2020-09-13 03:00:00 21.5 5 Sur 14 Sur 0 -- -- 83
2020-09-13 02:00:00 21.5 5 Sur 24 Sur 0 -- -- 84
2020-09-13 01:00:00 21.8 9 Sur 20 Sur 0 -- -- 82
2020-09-13 00:00:00 21.9 6 Sudoeste 19 Sur 0 -- -- 78
2020-09-12 23:00:00 22.6 8 Oeste 21 Sur 0 -- -- 71
2020-09-12 22:00:00 23.2 14 Sur 19 Sur 0 -- -- 71
2020-09-12 21:00:00 23.9 11 Sur 19 Sudoeste 0 -- -- 65
2020-09-12 20:00:00 23.9 10 Norte 26 Nordeste 0 -- -- 66
2020-09-12 19:00:00 24.9 17 Nordeste 24 Nordeste 0 -- -- 63
2020-09-12 18:00:00 28.2 15 Sur 33 Sur 0 -- -- 51
2020-09-12 17:00:00 29.9 23 Sur 31 Sur 0 -- -- 50
2020-09-12 16:00:00 30.8 20 Sur 31 Sur 0 -- -- 49
2020-09-12 15:00:00 29.6 18 Sur 25 Sur 0 -- -- 52
2020-09-12 14:00:00 28.6 19 Sur 30 Sur 0 -- -- 55
2020-09-12 13:00:00 28 15 Sur 28 Sur 0 -- -- 57
2020-09-12 12:00:00 27.6 15 Sur 21 Sur 0 -- -- 62
2020-09-12 11:00:00 24.6 17 Sur 22 Sur 0 -- -- 72
2020-09-12 10:00:00 24 8 Sur 15 Sur 0 -- -- 71
2020-09-12 09:00:00 21.4 0 Calma 7 Norte 0 -- -- 73
2020-09-12 08:00:00 20.4 2 Sur 9 Norte 0 -- -- 80
2020-09-12 07:00:00 20 0 Calma 9 Sur 0 -- -- 88
2020-09-12 06:00:00 20.3 0 Calma 11 Sudoeste 0 -- -- 87
2020-09-12 05:00:00 20.9 7 Sur 12 Sur 0 -- -- 83
2020-09-12 04:00:00 21.3 5 Sudeste 26 Nordeste 0 -- -- 73
2020-09-12 03:00:00 21.7 14 Nordeste 25 Nordeste 0 -- -- 71
2020-09-12 02:00:00 22.6 3 Norte 45 Este 0 -- -- 72
2020-09-12 01:00:00 22.5 9 Norte 26 Norte 0 -- -- 70
2020-09-12 00:00:00 21.7 5 Sur 17 Sur 0 -- -- 82
2020-09-11 23:00:00 22.3 11 Sur 17 Sur 0 -- -- 78
2020-09-11 22:00:00 22.7 4 Sudoeste 5 Sudoeste 0 -- -- 75
2020-09-11 21:00:00 23.1 5 Sudoeste 18 Sur 0 -- -- 73
2020-09-11 20:00:00 23.6 6 Sudoeste 24 Sur 0 -- -- 71
2020-09-11 19:00:00 26.4 5 Sur 17 Sur 0 -- -- 62
2020-09-11 18:00:00 27.2 15 Sur 28 Sur 0 -- -- 61
2020-09-11 17:00:00 28.6 18 Sur 31 Sur 0 -- -- 56
2020-09-11 16:00:00 30.3 23 Sur 33 Sur 0 -- -- 51
2020-09-11 15:00:00 32 22 Sur 28 Sur 0 -- -- 48
2020-09-11 14:00:00 30.5 15 Sur 23 Sur 0 -- -- 52
2020-09-11 13:00:00 28.3 9 Sudoeste 21 Sur 0 -- -- 56
2020-09-11 12:00:00 26.4 16 Sur 29 Sur 0 -- -- 63
2020-09-11 11:00:00 26.2 19 Sur 27 Sur 0 -- -- 64
2020-09-11 10:00:00 23.8 2 Noroeste 17 Sur 0 -- -- 68
2020-09-11 09:00:00 22 10 Sur 31 Nordeste 0 -- -- 75
2020-09-11 08:00:00 25.6 22 Nordeste 35 Norte 0 -- -- 37
2020-09-11 07:00:00 22.1 16 Norte 36 Nordeste 0 -- -- 64
2020-09-11 06:00:00 21.4 4 Sur 22 Norte 0 -- -- 75
2020-09-11 05:00:00 21.6 15 Nordeste 25 Nordeste 0 -- -- 73
2020-09-11 04:00:00 21.3 5 Sur 29 Norte 0 -- -- 79
2020-09-11 03:00:00 21.5 6 Este 18 Noroeste 0 -- -- 79
2020-09-11 02:00:00 21.4 4 Sur 15 Norte 0 -- -- 83
2020-09-11 01:00:00 21.7 3 Sur 13 Sur 0 -- -- 83
2020-09-11 00:00:00 21.8 4 Sur 13 Sur 0 -- -- 83
2020-09-10 23:00:00 22.5 3 Nordeste 20 Norte 0 -- -- 75
2020-09-10 22:00:00 22.5 2 Sur 9 Sur 0 -- -- 78
2020-09-10 21:00:00 23.1 6 Sur 18 Sur 0 -- -- 74
2020-09-10 20:00:00 25 9 Sur 23 Sur 0 -- -- 68
2020-09-10 19:00:00 29.6 14 Sur 21 Sur 0 -- -- 56
2020-09-10 18:00:00 31.6 16 Sur 25 Sur 0 -- -- 50
2020-09-10 17:00:00 31.6 12 Sur 31 Sur 0 -- -- 50
2020-09-10 16:00:00 30.4 22 Sur 31 Sur 0 -- -- 55
2020-09-10 15:00:00 30.6 23 Sur 33 Sur 0 -- -- 52
2020-09-10 14:00:00 31 24 Sur 32 Sur 0 -- -- 53
2020-09-10 13:00:00 30.4 19 Sur 30 Sur 0 -- -- 54
2020-09-10 12:00:00 29.6 9 Sur 27 Sur 0 -- -- 55
2020-09-10 11:00:00 28.9 11 Sur 26 Sur 0 -- -- 55
2020-09-10 10:00:00 27.5 4 Norte 18 Sur 0 -- -- 42
2020-09-10 09:00:00 26.7 11 Sur 66 Nordeste 0 -- -- 51
2020-09-10 08:00:00 26.6 36 Este 55 Nordeste 0 -- -- 42
2020-09-10 07:00:00 29.1 26 Nordeste 43 Norte 0 -- -- 37
2020-09-10 06:00:00 26 5 Sur 19 Sudoeste 0 -- -- 40
2020-09-10 05:00:00 26.3 8 Sur 30 Este 0 -- -- 41
2020-09-10 04:00:00 29.3 10 Norte 40 Este 0 -- -- 23
2020-09-10 03:00:00 26.4 5 Norte 32 Norte 0 -- -- 49
2020-09-10 02:00:00 31.1 8 Norte 26 Nordeste 0 -- -- 23
2020-09-10 01:00:00 27.3 0 Calma 10 Norte 0 -- -- 38
2020-09-10 00:00:00 26.9 2 Sudeste 14 Sur 0 -- -- 52
2020-09-09 23:00:00 29 4 Norte 10 Noroeste 0 -- -- 36
2020-09-09 22:00:00 29 3 Oeste 8 Sur 0 -- -- 40
2020-09-09 21:00:00 28.7 0 Calma 15 Sur 0 -- -- 43
2020-09-09 20:00:00 31.8 0 Calma 10 Sudoeste 0 -- -- 35
2020-09-09 19:00:00 35.5 9 Sudoeste 21 Sur 0 -- -- 29
2020-09-09 18:00:00 38.4 12 Sudoeste 21 Sur 0 -- -- 25
2020-09-09 17:00:00 38.3 18 Sur 31 Sur 0 -- -- 25
2020-09-09 16:00:00 38.8 22 Sur 29 Sur 0 -- -- 28
2020-09-09 15:00:00 38.7 21 Sur 28 Sur 0 -- -- 25
2020-09-09 14:00:00 37.9 19 Sur 25 Sur 0 -- -- 24
2020-09-09 13:00:00 37 15 Sur 22 Sur 0 -- -- 26
2020-09-09 12:00:00 36.3 11 Sur 19 Sur 0 -- -- 30
2020-09-09 11:00:00 34.2 8 Sur 13 Sur 0 -- -- 28
2020-09-09 10:00:00 30.4 3 Este 9 Nordeste 0 -- -- 30
2020-09-09 09:00:00 28 6 Sur 13 Sur 0 -- -- 35
2020-09-09 08:00:00 27.7 6 Sur 29 Sur 0 -- -- 34
2020-09-09 07:00:00 29.2 9 Sudeste 21 Sur 0 -- -- 28
2020-09-09 06:00:00 28.2 7 Sur 21 Sur 0 -- -- 32
2020-09-09 05:00:00 27.9 8 Sur 38 Norte 0 -- -- 37
2020-09-09 04:00:00 35.7 23 Norte 53 Norte 0 -- -- 15
2020-09-09 03:00:00 35.5 17 Norte 44 Norte 0 -- -- 14
2020-09-09 02:00:00 35.7 16 Nordeste 38 Norte 0 -- -- 16
2020-09-09 01:00:00 35.7 15 Norte 37 Norte 0 -- -- 14
2020-09-09 00:00:00 33.3 10 Este 24 Nordeste 0 -- -- 20
2020-09-08 23:00:00 35.7 17 Nordeste 32 Nordeste 0 -- -- 15
2020-09-08 22:00:00 29.5 3 Este 10 Sur 0 -- -- 39
2020-09-08 21:00:00 30.3 4 Sudoeste 9 Sur 0 -- -- 37
2020-09-08 20:00:00 32.9 0 Calma 12 Sur 0 -- -- 33
2020-09-08 19:00:00 37 8 Sudoeste 23 Sur 0 -- -- 26
2020-09-08 18:00:00 39.7 18 Sur 26 Sur 0 -- -- 21
2020-09-08 17:00:00 40.4 17 Sur 25 Sur 0 -- -- 19
2020-09-08 16:00:00 39.1 18 Sur 26 Sur 0 -- -- 26
2020-09-08 15:00:00 39.2 19 Sur 28 Sur 0 -- -- 26
2020-09-08 14:00:00 39.2 18 Sur 25 Sur 0 -- -- 26
2020-09-08 13:00:00 37.5 14 Sur 20 Sur 0 -- -- 29
2020-09-08 12:00:00 37 11 Sur 18 Sur 0 -- -- 28
2020-09-08 11:00:00 34.3 8 Sur 14 Sur 0 -- -- 28
2020-09-08 10:00:00 31.7 0 Calma 13 Norte 0 -- -- 28
2020-09-08 09:00:00 29.5 10 Norte 13 Norte 0 -- -- 32
2020-09-08 08:00:00 27.9 3 Norte 11 Norte 0 -- -- 33
2020-09-08 07:00:00 27.9 4 Norte 9 Norte 0 -- -- 33
2020-09-08 06:00:00 28.1 4 Sudeste 9 Norte 0 -- -- 31
2020-09-08 05:00:00 28.7 5 Nordeste 11 Norte 0 -- -- 31
2020-09-08 04:00:00 26.9 2 Norte 8 Nordeste 0 -- -- 44
2020-09-08 03:00:00 27.7 4 Nordeste 11 Norte 0 -- -- 47
2020-09-08 02:00:00 27.5 3 Norte 8 Norte 0 -- -- 41
2020-09-08 01:00:00 26.7 0 Calma 18 Sudoeste 0 -- -- 56
2020-09-08 00:00:00 28.5 0 Calma 9 Nordeste 0 -- -- 48
2020-09-07 23:00:00 28.2 4 Nordeste 8 Nordeste 0 -- -- 56
2020-09-07 22:00:00 26.7 3 Nordeste 13 Sur 0 -- -- 63
2020-09-07 21:00:00 28.6 0 Calma 5 Nordeste 0 -- -- 56
2020-09-07 20:00:00 27 2 Norte 23 Sur 0 -- -- 62
2020-09-07 19:00:00 31.2 5 Sur 19 Sur 0 -- -- 49
2020-09-07 18:00:00 30.6 7 Sudoeste 20 Sur 0 -- -- 51
2020-09-07 17:00:00 33 13 Sudoeste 21 Sudoeste 0 -- -- 46
2020-09-07 16:00:00 34.8 14 Sudoeste 24 Sur 0 -- -- 46
2020-09-07 15:00:00 36.6 13 Sur 18 Sudoeste 0 -- -- 44
2020-09-07 14:00:00 33.2 10 Sudoeste 19 Sur 0 -- -- 53
2020-09-07 13:00:00 33.6 8 Sudoeste 22 Sur 0 -- -- 49
2020-09-07 12:00:00 32.2 4 Sudoeste 19 Sur 0 -- -- 51
2020-09-07 11:00:00 31.9 7 Sur 13 Sur 0 -- -- 43
2020-09-07 10:00:00 28.1 4 Noroeste 8 Noroeste 0 -- -- 47
2020-09-07 09:00:00 23 4 Nordeste 11 Sur 0 -- -- 78
2020-09-07 08:00:00 22.9 4 Norte 10 Sudoeste 0 -- -- 70
2020-09-07 07:00:00 22.7 7 Norte 11 Norte 0 -- -- 77
2020-09-07 06:00:00 21.9 3 Nordeste 13 Sur 0 -- -- 83
2020-09-07 05:00:00 22 8 Norte 41 Sur 0 -- -- 83
2020-09-07 04:00:00 23.9 7 Norte 27 Nordeste 0.6 -- -- 89
2020-09-07 03:00:00 23 7 Sur 27 Sur 0.2 -- -- 75
2020-09-07 02:00:00 23 4 Sur 11 Sur 0 -- -- 77
2020-09-07 01:00:00 22.6 3 Norte 10 Sur 0 -- -- 82
2020-09-07 00:00:00 23.4 0 Calma 7 Sudeste 0 -- -- 77
2020-09-06 23:00:00 22.4 0 Calma 9 Sur 0 -- -- 82
2020-09-06 22:00:00 23 4 Sur 11 Sur 0 -- -- 78
2020-09-06 21:00:00 23.5 5 Sur 16 Sur 0 -- -- 74
2020-09-06 20:00:00 25.1 18 Sur 27 Sur 0 -- -- 67
2020-09-06 19:00:00 29.3 21 Sur 27 Sur 0 -- -- 50
2020-09-06 18:00:00 31.2 17 Sur 30 Sur 0 -- -- 42
2020-09-06 17:00:00 33.3 22 Sur 28 Sur 0 -- -- 37
2020-09-06 16:00:00 31.9 18 Sur 30 Sur 0 -- -- 45
2020-09-06 15:00:00 31.1 18 Sur 28 Sur 0 -- -- 51
2020-09-06 14:00:00 29.9 20 Sur 30 Sur 0 -- -- 56
2020-09-06 13:00:00 29.4 22 Sur 28 Sur 0 -- -- 57
2020-09-06 12:00:00 28.3 20 Sur 29 Sur 0 -- -- 58
2020-09-06 11:00:00 26.2 11 Sur 18 Sur 0 -- -- 67
2020-09-06 10:00:00 22.4 7 Sur 11 Sur 0 -- -- 75
2020-09-06 09:00:00 20.1 3 Nordeste 6 Norte 0 -- -- 84
2020-09-06 08:00:00 19.6 3 Norte 12 Norte 0 -- -- 86
2020-09-06 07:00:00 19.8 6 Norte 13 Nordeste 0 -- -- 88
2020-09-06 06:00:00 19.9 3 Oeste 8 Norte 0 -- -- 88
2020-09-06 05:00:00 19.8 2 Sur 4 Sur 0 -- -- 83
2020-09-06 04:00:00 20.2 0 Calma 8 Norte 0 -- -- 80
2020-09-06 03:00:00 20.6 0 Calma 14 Nordeste 0 -- -- 79
2020-09-06 02:00:00 20.6 6 Norte 10 Norte 0 -- -- 85
2020-09-06 01:00:00 21 0 Calma 9 Sudoeste 0 -- -- 84
2020-09-06 00:00:00 21.4 8 Sur 15 Sur 0 -- -- 83
2020-09-05 23:00:00 21.8 6 Sur 13 Sur 0 -- -- 83
2020-09-05 22:00:00 23.2 0 Calma 4 Sur 0 -- -- 77
2020-09-05 21:00:00 23.4 4 Sur 10 Sur 0 -- -- 75
2020-09-05 20:00:00 24.7 10 Sur 26 Sur 0 -- -- 71
2020-09-05 19:00:00 29.6 15 Sur 30 Sur 0 -- -- 54
2020-09-05 18:00:00 32.2 22 Sur 45 Sur 0 -- -- 40
2020-09-05 17:00:00 37.6 18 Sur 27 Sur 0 -- -- 20
2020-09-05 16:00:00 36.3 15 Sur 23 Sur 0 -- -- 28
2020-09-05 15:00:00 32 8 Sudoeste 25 Sur 0 -- -- 49
2020-09-05 14:00:00 29.9 17 Sur 31 Sur 0 -- -- 55
2020-09-05 13:00:00 28.7 19 Sur 30 Sur 0 -- -- 57
2020-09-05 12:00:00 28 20 Sur 31 Sur 0 -- -- 58
2020-09-05 11:00:00 27 17 Sur 24 Sur 0 -- -- 57
2020-09-05 10:00:00 23.1 3 Este 8 Sur 0 -- -- 70
2020-09-05 09:00:00 20.1 0 Calma 8 Nordeste 0 -- -- 91
2020-09-05 08:00:00 19.6 0 Calma 4 Norte 0 -- -- 92
2020-09-05 07:00:00 19.7 0 Calma 9 Sur 0 -- -- 92
2020-09-05 06:00:00 19.9 0 Calma 6 Sur 0 -- -- 91
2020-09-05 05:00:00 19.9 2 Nordeste 10 Sur 0 -- -- 91
2020-09-05 04:00:00 20 2 Nordeste 6 Sur 0 -- -- 91
2020-09-05 03:00:00 20.3 4 Norte 8 Sur 0 -- -- 91
2020-09-05 02:00:00 20.6 3 Sur 11 Sur 0 -- -- 90
2020-09-05 01:00:00 20.9 0 Calma 10 Sur 0 -- -- 88
2020-09-05 00:00:00 21.5 7 Sur 17 Sur 0 -- -- 83
2020-09-04 23:00:00 22.1 4 Sur 9 Sudoeste 0 -- -- 81
2020-09-04 22:00:00 21.9 0 Calma 19 Sur 0 -- -- 83
2020-09-04 21:00:00 22.8 12 Sur 19 Sur 0 -- -- 76
2020-09-04 20:00:00 25.1 11 Sudoeste 22 Sur 0 -- -- 69
2020-09-04 19:00:00 29 12 Sudoeste 23 Sur 0 -- -- 56
2020-09-04 18:00:00 29.9 18 Sur 27 Sur 0 -- -- 52
2020-09-04 17:00:00 30.5 21 Sur 33 Sur 0 -- -- 50
2020-09-04 16:00:00 31.2 18 Sur 30 Sur 0 -- -- 46
2020-09-04 15:00:00 31.3 21 Sur 36 Sur 0 -- -- 42
2020-09-04 14:00:00 31 18 Sur 27 Sudoeste 0 -- -- 52
2020-09-04 13:00:00 29.4 12 Sur 23 Sur 0 -- -- 58
2020-09-04 12:00:00 27.7 15 Sur 23 Sur 0 -- -- 62
2020-09-04 11:00:00 25.9 14 Sur 20 Sur 0 -- -- 68
2020-09-04 10:00:00 23.5 0 Calma 5 Sur 0 -- -- 55
2020-09-04 09:00:00 19.2 0 Calma 8 Nordeste 0 -- -- 88
2020-09-04 08:00:00 18.3 3 Nordeste 7 Norte 0 -- -- 95
2020-09-04 07:00:00 19.2 3 Nordeste 7 Nordeste 0 -- -- 95
2020-09-04 06:00:00 19.4 0 Calma 6 Norte 0 -- -- 94
2020-09-04 05:00:00 19.6 0 Calma 5 Nordeste 0 -- -- 94
2020-09-04 04:00:00 19.7 0 Calma 11 Sur 0 -- -- 92
2020-09-04 03:00:00 19.9 2 Nordeste 6 Norte 0 -- -- 92
2020-09-04 02:00:00 20.3 0 Calma 5 Oeste 0 -- -- 91
2020-09-04 01:00:00 20.9 0 Calma 12 Sur 0 -- -- 89
2020-09-04 00:00:00 21.4 6 Sudoeste 15 Sur 0 -- -- 85
2020-09-03 23:00:00 22.1 0 Calma 7 Sudoeste 0 -- -- 80
2020-09-03 22:00:00 22.7 2 Sur 6 Sudoeste 0 -- -- 75
2020-09-03 21:00:00 23.8 6 Sur 14 Sur 0 -- -- 71
2020-09-03 20:00:00 25.7 3 Sur 20 Sur 0 -- -- 65
2020-09-03 19:00:00 28.5 15 Sur 25 Sur 0 -- -- 57
2020-09-03 18:00:00 30 16 Sur 26 Sur 0 -- -- 55
2020-09-03 17:00:00 29.9 19 Sur 31 Sur 0 -- -- 54
2020-09-03 16:00:00 30.6 21 Sur 31 Sur 0 -- -- 51
2020-09-03 15:00:00 30.1 24 Sur 32 Sur 0 -- -- 50
2020-09-03 14:00:00 30.2 19 Sur 32 Sur 0 -- -- 55
2020-09-03 13:00:00 28.9 17 Sur 30 Sur 0 -- -- 60
2020-09-03 12:00:00 27.8 16 Sur 22 Sur 0 -- -- 64
2020-09-03 11:00:00 25.2 14 Sur 21 Sur 0 -- -- 72
2020-09-03 10:00:00 21.5 2 Sur 8 Sudoeste 0 -- -- 87
2020-09-03 09:00:00 18.9 0 Calma 5 Norte 0 -- -- 86
2020-09-03 08:00:00 18.7 3 Norte 7 Norte 0 -- -- 87
2020-09-03 07:00:00 19.1 5 Norte 7 Norte 0 -- -- 86
2020-09-03 06:00:00 19.5 3 Nordeste 5 Norte 0 -- -- 86
2020-09-03 05:00:00 20 2 Sur 4 Sudoeste 0 -- -- 83
2020-09-03 04:00:00 20.4 2 Sur 13 Norte 0 -- -- 81
2020-09-03 03:00:00 20.1 4 Norte 6 Norte 0 -- -- 86
2020-09-03 02:00:00 20.5 0 Calma -- -- 0 -- -- 87
2020-09-03 01:00:00 20.8 0 Calma 5 Nordeste 0 -- -- 87
2020-09-03 00:00:00 20.9 0 Calma 10 Sur 0 -- -- 86
2020-09-02 23:00:00 21.5 0 Calma 13 Sur 0 -- -- 84
2020-09-02 22:00:00 22.2 4 Sur 14 Sur 0 -- -- 81
2020-09-02 21:00:00 23.2 5 Sur 13 Sudoeste 0 -- -- 74
2020-09-02 20:00:00 24.8 10 Sudoeste 21 Sur 0 -- -- 70
2020-09-02 19:00:00 28.5 13 Sur 24 Sur 0 -- -- 59
2020-09-02 18:00:00 28.7 20 Sur 31 Sur 0 -- -- 57
2020-09-02 17:00:00 29.9 25 Sur 32 Sur 0 -- -- 53
2020-09-02 16:00:00 30.4 21 Sur 32 Sur 0 -- -- 52
2020-09-02 15:00:00 30.6 22 Sur 32 Sur 0 -- -- 52
2020-09-02 14:00:00 30.1 21 Sur 27 Sur 0 -- -- 54
2020-09-02 13:00:00 28.7 19 Sur 27 Sur 0 -- -- 57
2020-09-02 12:00:00 27.1 17 Sur 24 Sur 0 -- -- 63
2020-09-02 11:00:00 25.6 10 Sur 15 Sur 0 -- -- 69
2020-09-02 10:00:00 20.7 0 Calma 5 Norte 0 -- -- 88
2020-09-02 09:00:00 18.7 0 Calma 10 Norte 0 -- -- 88
2020-09-02 08:00:00 18.4 5 Norte 7 Norte 0 -- -- 89
2020-09-02 07:00:00 18.6 5 Norte 8 Norte 0 -- -- 87
2020-09-02 06:00:00 18.7 6 Norte 8 Norte 0 -- -- 87
2020-09-02 05:00:00 19.2 6 Norte 12 Norte 0 -- -- 87
2020-09-02 04:00:00 19.6 7 Norte 9 Norte 0 -- -- 87
2020-09-02 03:00:00 20.4 4 Nordeste 7 Nordeste 0 -- -- 89
2020-09-02 02:00:00 20 3 Norte 4 Nordeste 0 -- -- 91
2020-09-02 01:00:00 20.3 0 Calma 8 Sur 0 -- -- 89
2020-09-02 00:00:00 20.6 2 Sur 13 Sur 0 -- -- 88
2020-09-01 23:00:00 21 4 Sur 12 Sur 0 -- -- 86
2020-09-01 22:00:00 21.6 9 Sur 15 Sur 0 -- -- 83
2020-09-01 21:00:00 22.5 12 Sur 18 Sur 0 -- -- 76
2020-09-01 20:00:00 24.7 15 Sur 24 Sur 0 -- -- 68
2020-09-01 19:00:00 28.1 18 Sur 28 Sur 0 -- -- 55
2020-09-01 18:00:00 29.8 21 Sur 29 Sur 0 -- -- 50
2020-09-01 17:00:00 30.9 22 Sur 37 Sur 0 -- -- 47
2020-09-01 16:00:00 31.6 23 Sur 30 Sur 0 -- -- 46
2020-09-01 15:00:00 30.4 23 Sur 32 Sur 0 -- -- 47
2020-09-01 14:00:00 29.8 22 Sur 30 Sur 0 -- -- 47
2020-09-01 13:00:00 28.9 20 Sur 34 Sur 0 -- -- 50
2020-09-01 12:00:00 27.4 19 Sur 27 Sur 0 -- -- 55
2020-09-01 11:00:00 26.3 13 Sur 17 Sur 0 -- -- 58
2020-09-01 10:00:00 22.1 4 Nordeste 11 Norte 0 -- -- 72
2020-09-01 09:00:00 19.1 2 Norte 7 Norte 0 -- -- 79
2020-09-01 08:00:00 18.4 0 Calma 7 Norte 0 -- -- 80
2020-09-01 07:00:00 18.8 4 Norte 8 Norte 0 -- -- 79
2020-09-01 06:00:00 19.1 5 Norte 7 Norte 0 -- -- 77
2020-09-01 05:00:00 19.7 3 Norte 4 Norte 0 -- -- 77
2020-09-01 04:00:00 20.2 2 Sudeste 9 Norte 0 -- -- 75
2020-09-01 03:00:00 20.7 5 Norte 15 Norte 0 -- -- 75
2020-09-01 02:00:00 20.6 2 Norte 15 Noroeste 0 -- -- 75
2020-09-01 01:00:00 20.9 9 Norte 17 Norte 0 -- -- 74
2020-09-01 00:00:00 21 7 Nordeste 24 Nordeste 0 -- -- 69
2020-08-31 23:00:00 21.1 9 Nordeste 21 Norte 0 -- -- 73
2020-08-31 22:00:00 20.9 8 Norte 22 Norte 0 -- -- 73
2020-08-31 21:00:00 21.1 11 Norte 22 Sur 0 -- -- 72
2020-08-31 20:00:00 21.9 12 Sudoeste 33 Norte 0 -- -- 69
2020-08-31 19:00:00 26 16 Sur 30 Sur 0 -- -- 58
2020-08-31 18:00:00 24.7 21 Norte 39 Norte 0 -- -- 53
2020-08-31 17:00:00 24.6 24 Norte 36 Norte 0 -- -- 56
2020-08-31 16:00:00 24.4 22 Norte 37 Norte 0 -- -- 59
2020-08-31 15:00:00 26 14 Noroeste 31 Sur 0 -- -- 55
2020-08-31 14:00:00 29.8 17 Sur 31 Sur 0 -- -- 43
2020-08-31 13:00:00 28.6 20 Sur 29 Sur 0 -- -- 42
2020-08-31 12:00:00 23.8 22 Norte 34 Norte 0 -- -- 58
2020-08-31 11:00:00 23.2 19 Norte 33 Norte 0 -- -- 57
2020-08-31 10:00:00 22.8 14 Norte 30 Norte 0 -- -- 49
2020-08-31 09:00:00 21.4 13 Norte 26 Norte 0 -- -- 46
2020-08-31 08:00:00 21.1 9 Nordeste 31 Este 0 -- -- 45
2020-08-31 07:00:00 20.5 12 Nordeste 23 Nordeste 0 -- -- 50
2020-08-31 06:00:00 20.7 13 Nordeste 28 Norte 0 -- -- 55
2020-08-31 05:00:00 21.1 11 Norte 31 Noroeste 0 -- -- 53
2020-08-31 04:00:00 20.5 15 Norte 34 Norte 0 -- -- 58
2020-08-31 03:00:00 20.5 16 Norte 38 Norte 0 -- -- 59
2020-08-31 02:00:00 20.6 13 Norte 31 Norte 0 -- -- 61
2020-08-31 01:00:00 20.8 18 Norte 36 Norte 0 -- -- 57
2020-08-31 00:00:00 21 21 Norte 45 Norte 0 -- -- 56
2020-08-30 23:00:00 21.2 25 Norte 50 Norte 0 -- -- 55
2020-08-30 22:00:00 21.1 31 Norte 54 Norte 0 -- -- 56
2020-08-30 21:00:00 21.2 32 Norte 60 Norte 0 -- -- 57
2020-08-30 20:00:00 21.4 30 Norte 51 Norte 0 -- -- 59
2020-08-30 19:00:00 23 27 Norte 45 Noroeste 0 -- -- 58
2020-08-30 18:00:00 24.1 27 Norte 45 Norte 0 -- -- 54
2020-08-30 17:00:00 24.4 31 Norte 60 Norte 0 -- -- 50
2020-08-30 16:00:00 25.4 30 Norte 54 Norte 0 -- -- 47
2020-08-30 15:00:00 25.8 23 Norte 41 Norte 0 -- -- 43
2020-08-30 14:00:00 25.5 23 Norte 51 Noroeste 0 -- -- 44
2020-08-30 13:00:00 24.2 27 Norte 50 Norte 0 -- -- 46
2020-08-30 12:00:00 23.2 27 Norte 55 Norte 0 -- -- 57
2020-08-30 11:00:00 22.3 23 Norte 47 Norte 0 -- -- 61
2020-08-30 10:00:00 22.2 17 Norte 58 Norte 0 -- -- 51
2020-08-30 09:00:00 20.7 31 Norte 50 Noroeste 0 -- -- 54
2020-08-30 08:00:00 20.3 34 Norte 63 Noroeste 0 -- -- 63
2020-08-30 07:00:00 20.8 29 Norte 52 Nordeste 0 -- -- 61
2020-08-30 06:00:00 20.8 28 Norte 49 Norte 0 -- -- 57
2020-08-30 05:00:00 20.5 15 Norte 51 Norte 0 -- -- 70
2020-08-30 04:00:00 21.1 30 Norte 54 Norte 0 -- -- 59
2020-08-30 03:00:00 21.1 19 Norte 47 Norte 0 -- -- 58
2020-08-30 02:00:00 21.5 22 Norte 44 Norte 0 -- -- 58
2020-08-30 01:00:00 21.6 20 Norte 52 Norte 0 -- -- 60
2020-08-30 00:00:00 21.9 27 Norte 52 Norte 0 -- -- 61
2020-08-29 23:00:00 22.6 25 Norte 55 Norte 0 -- -- 58
2020-08-29 22:00:00 23.3 15 Norte 41 Noroeste 0 -- -- 53
2020-08-29 21:00:00 23.8 20 Norte 30 Noroeste 0 -- -- 48
2020-08-29 20:00:00 24 21 Norte 41 Noroeste 0 -- -- 58
2020-08-29 19:00:00 23.9 28 Norte 44 Norte 0 -- -- 64
2020-08-29 18:00:00 27.8 24 Norte 49 Norte 0 -- -- 48
2020-08-29 17:00:00 27.6 29 Norte 53 Noroeste 0 -- -- 50
2020-08-29 16:00:00 27.9 23 Norte 50 Noroeste 0 -- -- 49
2020-08-29 15:00:00 29.3 12 Sur 48 Noroeste 0 -- -- 46
2020-08-29 14:00:00 28.2 28 Norte 49 Norte 0 -- -- 40
2020-08-29 13:00:00 26.6 29 Norte 53 Norte 0 -- -- 43
2020-08-29 12:00:00 25.5 23 Norte 45 Noroeste 0 -- -- 49
2020-08-29 11:00:00 24.9 27 Norte 44 Norte 0 -- -- 48
2020-08-29 10:00:00 23.4 18 Norte 52 Norte 0 -- -- 56
2020-08-29 09:00:00 22.6 22 Norte 38 Norte 0 -- -- 58
2020-08-29 08:00:00 22.9 14 Norte 45 Nordeste 0 -- -- 52
2020-08-29 07:00:00 23.5 27 Norte 48 Nordeste 0 -- -- 52
2020-08-29 06:00:00 23.7 20 Nordeste 47 Este 0 -- -- 43
2020-08-29 05:00:00 24.1 27 Nordeste 50 Norte 0 -- -- 45
2020-08-29 04:00:00 26.1 25 Norte 47 Nordeste 0 -- -- 42
2020-08-29 03:00:00 25.5 23 Nordeste 45 Nordeste 0 -- -- 41
2020-08-29 02:00:00 26.5 24 Nordeste 41 Este 0 -- -- 38
2020-08-29 01:00:00 24.7 5 Sudoeste 22 Sur 0 -- -- 65
2020-08-29 00:00:00 27.1 13 Sur 44 Noroeste 0 -- -- 57
2020-08-28 23:00:00 32.8 26 Norte 48 Norte 0 -- -- 17
2020-08-28 22:00:00 26.6 10 Sur 20 Sur 0 -- -- 56
2020-08-28 21:00:00 28 9 Sur 22 Sudoeste 0 -- -- 51
2020-08-28 20:00:00 30.5 9 Sur 24 Sur 0 -- -- 43
2020-08-28 19:00:00 34.8 15 Sur 31 Noroeste 0 -- -- 38
2020-08-28 18:00:00 35 18 Norte 29 Norte 0 -- -- 32
2020-08-28 17:00:00 40 10 Sur 24 Sur 0 -- -- 26
2020-08-28 16:00:00 39.9 16 Sur 22 Sur 0 -- -- 29
2020-08-28 15:00:00 39.4 11 Sudoeste 22 Sur 0 -- -- 29
2020-08-28 14:00:00 39.3 14 Sur 21 Sur 0 -- -- 29
2020-08-28 13:00:00 38.9 11 Sudoeste 19 Sur 0 -- -- 28
2020-08-28 12:00:00 37.5 12 Sudoeste 19 Sur 0 -- -- 30
2020-08-28 11:00:00 35.5 8 Sur 20 Sur 0 -- -- 30
2020-08-28 10:00:00 32.7 10 Sur 17 Sur 0 -- -- 32
2020-08-28 09:00:00 30.6 4 Sudoeste 18 Sur 0 -- -- 34
2020-08-28 08:00:00 30.4 8 Sudoeste 44 Norte 0 -- -- 35
2020-08-28 07:00:00 37.7 23 Norte 58 Norte 0 -- -- 16
2020-08-28 06:00:00 38.2 35 Norte 63 Norte 0 -- -- 15
2020-08-28 05:00:00 38.7 39 Norte 65 Norte 0 -- -- 15
2020-08-28 04:00:00 38.8 35 Norte 57 Norte 0 -- -- 15
2020-08-28 03:00:00 39.3 31 Norte 53 Norte 0 -- -- 15
2020-08-28 02:00:00 38.9 15 Nordeste 41 Este 0 -- -- 16
2020-08-28 01:00:00 32.6 9 Sur 18 Sudoeste 0 -- -- 28
2020-08-28 00:00:00 34.2 8 Sudeste 13 Sur 0 -- -- 26
2020-08-27 23:00:00 34 7 Sudoeste 14 Este 0 -- -- 29
2020-08-27 22:00:00 32.9 6 Sur 12 Sudeste 0 -- -- 36
2020-08-27 21:00:00 32.4 4 Sur 13 Sur 0 -- -- 45
2020-08-27 20:00:00 35 3 Sur 15 Sur 0 -- -- 42
2020-08-27 19:00:00 39.9 5 Sudoeste 14 Sudoeste 0 -- -- 26
2020-08-27 18:00:00 39.9 13 Sudoeste 19 Sudoeste 0 -- -- 33
2020-08-27 17:00:00 40.8 15 Sur 32 Sur 0 -- -- 35
2020-08-27 16:00:00 43.2 24 Sur 32 Sur 0 -- -- 30
2020-08-27 15:00:00 42.5 11 Sudoeste 19 Sur 0 -- -- 30
2020-08-27 14:00:00 38.3 8 Oeste 17 Sudoeste 0 -- -- 34
2020-08-27 13:00:00 40.4 12 Sudoeste 27 Sur 0 -- -- 29
2020-08-27 12:00:00 39.3 15 Sur 26 Sudoeste 0 -- -- 30
2020-08-27 11:00:00 40.2 17 Norte 35 Norte 0 -- -- 22
2020-08-27 10:00:00 37.5 4 Sur 14 Oeste 0 -- -- 28
2020-08-27 09:00:00 37.7 9 Norte 24 Norte 0 -- -- 26
2020-08-27 08:00:00 36.1 10 Nordeste 23 Nordeste 0 -- -- 28
2020-08-27 07:00:00 32.3 8 Norte 10 Norte 0 -- -- 34
2020-08-27 06:00:00 28.9 0 Calma 7 Sudoeste 0 -- -- 56
2020-08-27 05:00:00 29.9 8 Sur 26 Este 0 -- -- 56
2020-08-27 04:00:00 36.2 13 Nordeste 26 Este 0 -- -- 29
2020-08-27 03:00:00 36.4 14 Nordeste 26 Nordeste 0 -- -- 28
2020-08-27 02:00:00 36.6 8 Nordeste 20 Nordeste 0 -- -- 27
2020-08-27 01:00:00 36 4 Sur 18 Este 0 -- -- 26
2020-08-27 00:00:00 36.2 8 Este 18 Este 0 -- -- 27
2020-08-26 23:00:00 35 2 Norte 12 Norte 0 -- -- 31
2020-08-26 22:00:00 35.1 6 Norte 11 Norte 0 -- -- 33
2020-08-26 21:00:00 34.7 0 Calma 8 Sur 0 -- -- 34
2020-08-26 20:00:00 36.9 6 Sur 18 Sur 0 -- -- 33
2020-08-26 19:00:00 39.8 14 Sur 27 Sur 0 -- -- 28
2020-08-26 18:00:00 42.1 18 Sur 29 Sur 0 -- -- 25
2020-08-26 17:00:00 42.8 22 Sur 36 Sur 0 -- -- 25
2020-08-26 16:00:00 42.9 19 Sudoeste 35 Sur 0 -- -- 24
2020-08-26 15:00:00 42.9 21 Sudoeste 39 Sur 0 -- -- 24
2020-08-26 14:00:00 41.8 20 Sudoeste 34 Sur 0 -- -- 27
2020-08-26 13:00:00 41.4 18 Sudoeste 32 Sudoeste 0 -- -- 27
2020-08-26 12:00:00 40.4 15 Sudoeste 31 Sur 0 -- -- 26
2020-08-26 11:00:00 38 7 Sur 29 Oeste 0 -- -- 31
2020-08-26 10:00:00 35.8 6 Sur 15 Noroeste 0 -- -- 30
2020-08-26 09:00:00 37.2 6 Noroeste 17 Noroeste 0 -- -- 25
2020-08-26 08:00:00 34.9 10 Sudoeste 52 Norte 0 -- -- 31
2020-08-26 07:00:00 39.1 27 Norte 63 Norte 0 -- -- 19
2020-08-26 06:00:00 39.2 32 Norte 71 Norte 0 -- -- 16
2020-08-26 05:00:00 28.8 12 Sur 20 Sur 0 -- -- 42
2020-08-26 04:00:00 25.9 6 Nordeste 14 Norte 0 -- -- 63
2020-08-26 03:00:00 24.4 8 Sur 28 Sur 0 -- -- 73
2020-08-26 02:00:00 23.8 10 Este 36 Sur 0 -- -- 76
2020-08-26 01:00:00 26.1 3 Noroeste 28 Sur 0 -- -- 67
2020-08-26 00:00:00 36.2 13 Norte 20 Norte 0 -- -- 21
2020-08-25 23:00:00 34.6 5 Norte 9 Norte 0 -- -- 23
2020-08-25 22:00:00 32.3 0 Calma 12 Sur 0 -- -- 37
2020-08-25 21:00:00 32.8 2 Nordeste 6 Nordeste 0 -- -- 40
2020-08-25 20:00:00 33.2 2 Sudeste 10 Sudoeste 0 -- -- 43
2020-08-25 19:00:00 34.2 6 Sur 17 Sur 0 -- -- 43
2020-08-25 18:00:00 36.3 10 Sudoeste 19 Sur 0 -- -- 38
2020-08-25 17:00:00 37.8 11 Sur 26 Sur 0 -- -- 35
2020-08-25 16:00:00 37.2 18 Sur 28 Sur 0 -- -- 37
2020-08-25 15:00:00 36.9 14 Sur 28 Sur 0 -- -- 40
2020-08-25 14:00:00 34.7 13 Sur 26 Sur 0 -- -- 43
2020-08-25 13:00:00 32.4 14 Sur 41 Sur 0 -- -- 47
2020-08-25 12:00:00 33.4 4 Norte 28 Sur 0 -- -- 31
2020-08-25 11:00:00 33.9 15 Sur 33 Sur 0 -- -- 31
2020-08-25 10:00:00 28.6 6 Sudoeste 11 Sur 0 -- -- 39
2020-08-25 09:00:00 26.8 7 Norte 22 Sur 0 -- -- 38
2020-08-25 08:00:00 25.2 4 Norte 10 Norte 0 -- -- 45
2020-08-25 07:00:00 26.2 8 Sur 22 Noroeste 0 -- -- 47
2020-08-25 06:00:00 24.9 8 Nordeste 13 Nordeste 0 -- -- 49
2020-08-25 05:00:00 24.1 0 Calma 23 Norte 0 -- -- 54
2020-08-25 04:00:00 24.6 9 Norte 29 Norte 0 -- -- 54
2020-08-25 03:00:00 24.3 17 Norte 36 Norte 0 -- -- 57
2020-08-25 02:00:00 24.9 22 Norte 40 Nordeste 0 -- -- 56
2020-08-25 01:00:00 25.9 22 Norte 46 Nordeste 0 -- -- 51
2020-08-25 00:00:00 25.2 30 Nordeste 48 Nordeste 0 -- -- 56
2020-08-24 23:00:00 25.6 32 Nordeste 47 Nordeste 0 -- -- 54
2020-08-24 22:00:00 25.8 22 Norte 41 Nordeste 0 -- -- 53
2020-08-24 21:00:00 25.9 21 Norte 39 Nordeste 0 -- -- 55
2020-08-24 20:00:00 27.5 23 Norte 35 Nordeste 0 -- -- 51
2020-08-24 19:00:00 29.9 23 Nordeste 38 Nordeste 0 -- -- 47
2020-08-24 18:00:00 32.8 12 Norte 34 Nordeste 0 -- -- 37
2020-08-24 17:00:00 36.9 18 Sur 26 Sur 0 -- -- 28
2020-08-24 16:00:00 37.4 15 Sur 26 Sur 0 -- -- 26
2020-08-24 15:00:00 37.3 15 Sur 23 Sur 0 -- -- 27
2020-08-24 14:00:00 36 9 Sudoeste 22 Sur 0 -- -- 32
2020-08-24 13:00:00 35.5 14 Sur 23 Sur 0 -- -- 31
2020-08-24 12:00:00 34.1 11 Sur 17 Sur 0 -- -- 33
2020-08-24 11:00:00 31 10 Sur 23 Noroeste 0 -- -- 37
2020-08-24 10:00:00 28.3 15 Norte 33 Norte 0 -- -- 34
2020-08-24 09:00:00 26.1 21 Norte 31 Norte 0 -- -- 42
2020-08-24 08:00:00 26.2 19 Norte 28 Norte 0 -- -- 40
2020-08-24 07:00:00 24.8 11 Norte 30 Norte 0 -- -- 45
2020-08-24 06:00:00 25.1 9 Norte 17 Norte 0 -- -- 44
2020-08-24 05:00:00 24.3 0 Calma 12 Sur 0 -- -- 49
2020-08-24 04:00:00 26.9 5 Norte 12 Nordeste 0 -- -- 35
2020-08-24 03:00:00 24.7 0 Calma 4 Sudeste 0 -- -- 52
2020-08-24 02:00:00 24.4 0 Calma 8 Norte 0 -- -- 61
2020-08-24 01:00:00 24.4 0 Calma 13 Sur 0 -- -- 66
2020-08-24 00:00:00 25.5 3 Sur 13 Sur 0 -- -- 57
2020-08-23 23:00:00 27 10 Sur 38 Nordeste 0 -- -- 53
2020-08-23 22:00:00 32.7 23 Nordeste 34 Nordeste 0 -- -- 25
2020-08-23 21:00:00 28.9 9 Sur 30 Nordeste 0 -- -- 48
2020-08-23 20:00:00 34.8 17 Nordeste 42 Nordeste 0 -- -- 19
2020-08-23 19:00:00 33.7 25 Nordeste 44 Este 0 -- -- 27
2020-08-23 18:00:00 35.4 14 Sur 45 Este 0 -- -- 37
2020-08-23 17:00:00 35.9 12 Sudoeste 25 Sur 0 -- -- 35
2020-08-23 16:00:00 37.1 21 Sur 35 Sur 0 -- -- 36
2020-08-23 15:00:00 36.8 16 Sur 26 Sur 0 -- -- 34
2020-08-23 14:00:00 36.6 17 Sur 32 Este 0 -- -- 35
2020-08-23 13:00:00 36.7 22 Nordeste 45 Este 0 -- -- 25
2020-08-23 12:00:00 34.2 25 Nordeste 41 Nordeste 0 -- -- 28
2020-08-23 11:00:00 34.4 20 Nordeste 39 Nordeste 0 -- -- 26
2020-08-23 10:00:00 34 22 Nordeste 38 Norte 0 -- -- 23
2020-08-23 09:00:00 34.8 26 Norte 45 Norte 0 -- -- 18
2020-08-23 08:00:00 34.5 31 Norte 42 Norte 0 -- -- 18
2020-08-23 07:00:00 29.1 6 Sudoeste 24 Norte 0 -- -- 27
2020-08-23 06:00:00 29.3 10 Sur 40 Noroeste 0 -- -- 35
2020-08-23 05:00:00 27.6 5 Sur 19 Sudoeste 0 -- -- 37
2020-08-23 04:00:00 33.3 10 Noroeste 30 Norte 0 -- -- 20
2020-08-23 03:00:00 34.9 12 Norte 37 Norte 0 -- -- 17
2020-08-23 02:00:00 35.9 24 Norte 43 Norte 0 -- -- 16
2020-08-23 01:00:00 29.2 9 Sur 21 Este 0 -- -- 32
2020-08-23 00:00:00 31.7 5 Sudeste 15 Sudoeste 0 -- -- 24
2020-08-22 23:00:00 30.1 6 Sur 17 Sur 0 -- -- 32
2020-08-22 22:00:00 34.1 5 Norte 32 Norte 0 -- -- 22
2020-08-22 21:00:00 34.2 12 Nordeste 26 Norte 0 -- -- 20
2020-08-22 20:00:00 34.9 3 Sur 13 Sur 0 -- -- 27
2020-08-22 19:00:00 37.8 6 Sudoeste 14 Sur 0 -- -- 25
2020-08-22 18:00:00 38.9 12 Sudoeste 19 Sur 0 -- -- 26
2020-08-22 17:00:00 39.9 15 Sur 22 Sur 0 -- -- 24
2020-08-22 16:00:00 40.4 15 Sur 24 Sudoeste 0 -- -- 23
2020-08-22 15:00:00 39.7 15 Sudoeste 22 Sur 0 -- -- 24
2020-08-22 14:00:00 38.6 13 Sur 26 Sur 0 -- -- 24
2020-08-22 13:00:00 39.3 12 Sur 19 Sudoeste 0 -- -- 23
2020-08-22 12:00:00 37.6 12 Sur 16 Sudoeste 0 -- -- 27
2020-08-22 11:00:00 34.2 7 Sur 12 Sur 0 -- -- 30
2020-08-22 10:00:00 31.6 0 Calma 6 Norte 0 -- -- 28
2020-08-22 09:00:00 27.7 5 Norte 8 Nordeste 0 -- -- 34
2020-08-22 08:00:00 24.8 4 Nordeste 9 Norte 0 -- -- 50
2020-08-22 07:00:00 23.5 0 Calma 6 Norte 0 -- -- 61
2020-08-22 06:00:00 24 3 Norte 5 Norte 0 -- -- 63
2020-08-22 05:00:00 24.8 0 Calma 11 Sur 0 -- -- 62
2020-08-22 04:00:00 28.8 5 Nordeste 10 Norte 0 -- -- 36
2020-08-22 03:00:00 27.8 3 Norte 10 Norte 0 -- -- 43
2020-08-22 02:00:00 27.4 8 Norte 26 Nordeste 0 -- -- 47
2020-08-22 01:00:00 35.8 12 Nordeste 31 Este 0 -- -- 15
2020-08-22 00:00:00 34.4 15 Nordeste 27 Este 0 -- -- 19
2020-08-21 23:00:00 33.9 16 Nordeste 30 Nordeste 0 -- -- 20
2020-08-21 22:00:00 33.1 13 Nordeste 21 Nordeste 0 -- -- 23
2020-08-21 21:00:00 31.6 9 Norte 13 Norte 0 -- -- 25
2020-08-21 20:00:00 27.8 0 Calma 10 Sur 0 -- -- 42
2020-08-21 19:00:00 30.8 8 Sudoeste 26 Sur 0 -- -- 37
2020-08-21 18:00:00 31.8 11 Sudoeste 34 Sur 0 -- -- 32
2020-08-21 17:00:00 34.8 26 Sur 32 Sur 0 -- -- 28
2020-08-21 16:00:00 35.7 19 Sur 30 Sur 0 -- -- 24
2020-08-21 15:00:00 34.5 23 Sur 31 Sur 0 -- -- 36
2020-08-21 14:00:00 32.8 12 Sur 42 Sur 0 -- -- 38
2020-08-21 13:00:00 33.3 16 Sur 33 Sur 0 -- -- 37
2020-08-21 12:00:00 30 18 Sur 25 Sur 0 -- -- 45
2020-08-21 11:00:00 28.8 14 Sur 23 Sur 0 -- -- 41
2020-08-21 10:00:00 25.8 3 Este 6 Sur 0 -- -- 41
2020-08-21 09:00:00 22.8 4 Norte 10 Norte 0 -- -- 47
2020-08-21 08:00:00 22.6 3 Norte 10 Norte 0 -- -- 47
2020-08-21 07:00:00 22.8 7 Nordeste 10 Sur 0 -- -- 47
2020-08-21 06:00:00 22.7 4 Norte 9 Norte 0 -- -- 47
2020-08-21 05:00:00 23.9 4 Norte 6 Nordeste 0 -- -- 44
2020-08-21 04:00:00 23.2 4 Nordeste 12 Norte 0 -- -- 48
2020-08-21 03:00:00 22.1 0 Calma 4 Sudoeste 0 -- -- 52
2020-08-21 02:00:00 22.7 0 Calma 6 Nordeste 0 -- -- 50
2020-08-21 01:00:00 22.6 0 Calma 8 Norte 0 -- -- 53
2020-08-21 00:00:00 22.9 5 Norte 6 Norte 0 -- -- 54